createdAt,value
2023-03-25T00:00:43.986Z,4.50
2023-03-25T00:06:57.358Z,4.50
2023-03-25T00:13:04.139Z,4.80
2023-03-25T00:19:05.944Z,4.80
2023-03-25T00:25:18.330Z,4.20
2023-03-25T00:31:19.926Z,4.00
2023-03-25T00:37:22.088Z,3.80
2023-03-25T00:43:23.587Z,4.10
2023-03-25T00:49:27.905Z,4.10
2023-03-25T00:55:29.471Z,4.40
2023-03-25T01:01:31.011Z,4.70
2023-03-25T01:07:32.774Z,5.00
2023-03-25T01:13:34.743Z,4.90
2023-03-25T01:19:36.359Z,6.10
2023-03-25T01:25:37.999Z,5.50
2023-03-25T01:31:40.470Z,5.90
2023-03-25T01:37:43.844Z,6.90
2023-03-25T01:44:05.891Z,7.10
2023-03-25T01:50:14.059Z,6.80
2023-03-25T01:56:19.442Z,6.80
2023-03-25T02:02:24.429Z,7.10
2023-03-25T02:08:26.178Z,6.50
2023-03-25T02:14:30.263Z,6.50
2023-03-25T02:20:40.976Z,6.40
2023-03-25T02:27:26.672Z,5.50
2023-03-25T02:33:44.997Z,5.70
2023-03-25T02:40:06.420Z,4.90
2023-03-25T02:46:11.554Z,4.90
2023-03-25T02:52:37.433Z,5.10
2023-03-25T02:58:39.718Z,4.60
2023-03-25T03:04:50.981Z,4.40
2023-03-25T03:11:01.964Z,4.70
2023-03-25T03:17:12.847Z,4.60
2023-03-25T03:23:53.985Z,6.10
2023-03-25T03:30:18.316Z,5.90
2023-03-25T03:36:23.609Z,6.40
2023-03-25T03:42:38.345Z,5.70
2023-03-25T03:48:43.638Z,5.50
2023-03-25T03:54:49.001Z,5.70
2023-03-25T04:00:53.852Z,6.10
2023-03-25T04:07:06.595Z,6.00
2023-03-25T04:13:11.128Z,4.80
2023-03-25T04:19:18.996Z,3.00
2023-03-25T04:25:24.731Z,2.70
2023-03-25T04:31:30.646Z,2.50
2023-03-25T04:37:36.352Z,2.10
2023-03-25T04:43:38.655Z,2.10
2023-03-25T04:49:44.222Z,2.10
2023-03-25T04:55:48.751Z,1.90
2023-03-25T05:01:52.037Z,1.90
2023-03-25T05:07:54.735Z,2.00
2023-03-25T05:13:56.389Z,2.20
2023-03-25T05:19:57.950Z,2.80
2023-03-25T05:26:02.285Z,3.20
2023-03-25T05:32:04.091Z,3.20
2023-03-25T05:38:07.980Z,3.30
2023-03-25T05:44:14.102Z,3.30
2023-03-25T05:50:16.165Z,4.30
2023-03-25T05:56:19.487Z,4.00
2023-03-25T06:02:21.468Z,3.60
2023-03-25T06:08:27.375Z,3.80
2023-03-25T06:14:31.879Z,4.30
2023-03-25T06:20:33.837Z,3.70
2023-03-25T06:26:35.513Z,4.20
2023-03-25T06:32:37.747Z,3.60
2023-03-25T06:38:39.841Z,2.90
2023-03-25T06:44:46.560Z,3.70
2023-03-25T06:51:08.626Z,3.40
2023-03-25T06:57:10.297Z,3.60
2023-03-25T07:03:12.597Z,3.60
2023-03-25T07:09:14.877Z,3.80
2023-03-25T07:15:16.481Z,4.00
2023-03-25T07:21:19.076Z,4.00
2023-03-25T07:27:20.566Z,3.60
2023-03-25T07:33:30.429Z,4.00
2023-03-25T07:39:31.902Z,4.50
2023-03-25T07:45:44.615Z,4.50
2023-03-25T07:51:46.425Z,4.70
2023-03-25T07:57:47.959Z,5.30
2023-03-25T08:03:49.599Z,5.50
2023-03-25T08:09:51.288Z,5.20
2023-03-25T08:15:53.439Z,5.70
2023-03-25T08:21:55.386Z,4.90
2023-03-25T08:27:57.127Z,4.50
2023-03-25T08:34:00.258Z,4.70
2023-03-25T08:40:06.912Z,4.00
2023-03-25T08:46:08.545Z,3.50
2023-03-25T08:52:10.180Z,3.30
2023-03-25T08:58:11.743Z,2.20
2023-03-25T09:04:13.411Z,2.50
2023-03-25T09:10:15.271Z,2.20
2023-03-25T09:16:17.149Z,1.90
2023-03-25T09:22:18.695Z,2.00
2023-03-25T09:28:20.401Z,1.80
2023-03-25T09:34:22.035Z,1.40
2023-03-25T09:40:24.061Z,1.80
2023-03-25T09:46:26.032Z,2.00
2023-03-25T09:52:35.201Z,1.60
2023-03-25T09:58:43.939Z,1.80
2023-03-25T10:05:17.859Z,1.60
2023-03-25T10:11:49.325Z,1.70
2023-03-25T10:18:14.149Z,1.80
2023-03-25T10:24:25.017Z,1.90
2023-03-25T10:30:50.882Z,1.90
2023-03-25T10:36:57.506Z,2.10
2023-03-25T10:49:21.496Z,2.00
2023-03-25T10:55:25.918Z,2.30
2023-03-25T11:01:46.232Z,2.10
2023-03-25T11:07:50.952Z,2.20
2023-03-25T11:13:56.614Z,1.70
2023-03-25T11:20:07.221Z,1.80
2023-03-25T11:26:29.769Z,1.80
2023-03-25T11:32:39.052Z,1.20
2023-03-25T11:38:40.973Z,0.80
2023-03-25T11:44:49.795Z,1.20
2023-03-25T11:50:57.480Z,1.00
2023-03-25T11:56:59.160Z,0.80
2023-03-25T12:03:02.643Z,0.80
2023-03-25T12:09:09.025Z,1.20
2023-03-25T12:15:38.055Z,1.40
2023-03-25T12:22:09.094Z,1.40
2023-03-25T12:28:55.937Z,0.90
2023-03-25T12:35:14.668Z,1.00
2023-03-25T12:41:31.018Z,1.00
2023-03-25T12:47:32.469Z,0.90
2023-03-25T12:53:52.754Z,1.30
2023-03-25T13:00:14.375Z,1.30
2023-03-25T13:06:43.432Z,0.60
2023-03-25T13:12:53.346Z,0.50
2023-03-25T13:19:13.493Z,0.70
2023-03-25T13:25:25.007Z,0.50
2023-03-25T13:31:35.479Z,0.40
2023-03-25T13:37:46.235Z,0.50
2023-03-25T13:43:55.456Z,0.50
2023-03-25T13:50:03.129Z,0.90
2023-03-25T13:56:40.930Z,1.50
2023-03-25T14:03:11.948Z,0.70
2023-03-25T14:09:48.690Z,0.90
2023-03-25T14:22:07.723Z,1.00
2023-03-25T14:28:16.113Z,1.10
2023-03-25T14:34:25.518Z,1.30
2023-03-25T14:41:02.229Z,1.20
2023-03-25T14:47:15.375Z,1.00
2023-03-25T14:53:18.029Z,1.10
2023-03-25T14:59:26.413Z,1.00
2023-03-25T15:05:29.445Z,1.30
2023-03-25T15:11:35.619Z,1.10
2023-03-25T15:17:48.522Z,1.00
2023-03-25T15:23:59.636Z,0.80
2023-03-25T15:30:32.796Z,0.90
2023-03-25T15:36:52.991Z,0.90
2023-03-25T15:43:05.391Z,1.00
2023-03-25T15:49:38.111Z,0.70
2023-03-25T15:55:45.839Z,1.60
2023-03-25T16:01:49.137Z,0.80
2023-03-25T16:07:51.040Z,1.00
2023-03-25T16:14:07.767Z,1.60
2023-03-25T16:20:14.821Z,1.30
2023-03-25T16:26:37.548Z,1.00
2023-03-25T16:32:39.044Z,1.00
2023-03-25T16:38:40.958Z,1.10
2023-03-25T16:44:42.718Z,1.10
2023-03-25T16:50:45.197Z,1.00
2023-03-25T16:57:09.633Z,1.40
2023-03-25T17:03:41.982Z,1.30
2023-03-25T17:09:50.057Z,1.70
2023-03-25T17:15:56.110Z,1.90
2023-03-25T17:22:31.602Z,2.10
2023-03-25T17:28:42.613Z,2.30
2023-03-25T17:34:55.195Z,3.00
2023-03-25T17:41:05.779Z,3.10
2023-03-25T17:47:12.944Z,2.80
2023-03-25T17:53:14.478Z,3.70
2023-03-25T17:59:18.659Z,3.70
2023-03-25T18:05:20.577Z,3.60
2023-03-25T18:11:25.093Z,4.00
2023-03-25T18:17:26.614Z,3.80
2023-03-25T18:23:28.292Z,4.10
2023-03-25T18:29:30.529Z,4.30
2023-03-25T18:35:33.326Z,3.60
2023-03-25T18:41:34.983Z,3.80
2023-03-25T18:47:37.738Z,3.90
2023-03-25T18:53:40.209Z,4.30
2023-03-25T18:59:41.809Z,4.80
2023-03-25T19:05:44.607Z,4.60
2023-03-25T19:11:46.693Z,4.40
2023-03-25T19:17:48.643Z,4.80
2023-03-25T19:23:51.449Z,4.50
2023-03-25T19:29:55.266Z,4.80
2023-03-25T19:36:00.429Z,5.50
2023-03-25T19:42:03.600Z,6.80
2023-03-25T19:48:05.337Z,9.30
2023-03-25T19:54:09.261Z,8.00
2023-03-25T20:00:16.862Z,8.40
2023-03-25T20:06:19.162Z,8.30
2023-03-25T20:12:21.112Z,8.20
2023-03-25T20:18:24.423Z,8.40
2023-03-25T20:24:26.141Z,8.60
2023-03-25T20:30:43.480Z,7.40
2023-03-25T20:36:55.877Z,8.60
2023-03-25T20:42:58.289Z,7.70
2023-03-25T20:49:02.649Z,8.10
2023-03-25T20:55:05.156Z,7.60
2023-03-25T21:01:08.523Z,7.90
2023-03-25T21:07:11.231Z,7.90
2023-03-25T21:13:14.167Z,7.30
2023-03-25T21:19:15.859Z,7.20
2023-03-25T21:25:20.433Z,6.10
2023-03-25T21:31:24.931Z,5.40
2023-03-25T21:37:29.147Z,6.00
2023-03-25T21:43:35.124Z,7.10
2023-03-25T21:49:37.597Z,8.00
2023-03-25T21:55:39.272Z,8.30
2023-03-25T22:01:41.053Z,7.00
2023-03-25T22:07:43.028Z,5.90
2023-03-25T22:13:45.165Z,4.90
2023-03-25T22:19:50.431Z,2.50
2023-03-25T22:25:52.107Z,2.10
2023-03-25T22:31:55.134Z,1.70
2023-03-25T22:37:56.672Z,1.60
2023-03-25T22:43:58.512Z,1.70
2023-03-25T22:50:00.329Z,1.70
2023-03-25T22:56:02.946Z,1.10
2023-03-25T23:02:04.804Z,1.00
2023-03-25T23:08:06.879Z,1.00
2023-03-25T23:14:11.461Z,0.90
2023-03-25T23:20:13.015Z,1.00
2023-03-25T23:26:20.990Z,0.90
2023-03-25T23:32:23.018Z,0.80
2023-03-25T23:38:24.571Z,0.80
2023-03-25T23:44:26.767Z,0.80
2023-03-25T23:50:28.304Z,0.70
2023-03-25T23:56:30.691Z,1.00
